Terminal Aerodrome Forecast
Issued by NWS

Home | Current Version | Previous Version | Text Only | Print | Product List | Glossary On
Versions: 1 2 3 4 5 6 7 8 9 10 11 12 13 14 15 16 17 18 19 20 21
000
FTUS41 KALY 301300 AAA
TAFPSF
TAF AMD
KPSF 301326Z 3013/3112 19009KT P6SM SCT019
      TEMPO 3013/3016 BKN019
     FM301600 20009KT P6SM SCT020 BKN045
     FM302300 20005KT P6SM BKN150
     FM310500 23003KT 5SM BR OVC030
     FM310800 23003KT 2SM BR OVC009=

USA.gov is the U.S. government's official web portal to all federal, state and local government web resources and services.